»·PEaware :: N377AM KBUR-KIFP

N377AM :: KBUR-KIFP

FLIGHT INFORMATION

Flight Status: Arrived
Operator: Privately registered:
United States
More flights under this callsign
Pilot: Andrew M. (139)
Aircraft: SOCATA TBM-900
(TBM9)
More flights by this aircraft type
Origin: KBUR Bob Hope-Burbank
United States
Destination: KIFP Laughlin/Bullhead Intl
United States
More flights between these airports :: More routes between these airports
Route: +VNY3 PMD
File this flight plan on PilotEdge
Remarks:
Altitude:
(Current/Filed)
27,000ft
Speed:
(Current/Filed)
300kts
Departed: 25-Jan-19 06:20 PM
Arrived: 25-Jan-19 07:28 PM
Distance/Time
Traveled:
196nm/1:08
Distance/Time
To Go:
Arrived

Flight Plot

Page will automatically refresh every two minutes.

Flight plan parsing failed; only flown route is shown


Map Options




Map Legend


Flown Route
Filed Route
Departure Airport
Arrival Airport
Navaid (VOR, NDB)
Fix

Horizontal Profiles

Position Reports

Time Latitude Longitude Heading Altitude Ground
Speed
25-Jan-19 18:04 34.200203 -118.358749 263 720ft 0kts
25-Jan-19 18:05 34.200203 -118.358749 263 720ft 0kts
25-Jan-19 18:06 34.200203 -118.358749 263 720ft 0kts
25-Jan-19 18:07 34.200203 -118.358749 263 720ft 0kts
25-Jan-19 18:08 34.200203 -118.358749 263 720ft 0kts
25-Jan-19 18:09 34.200245 -118.358946 312 720ft 2kts
25-Jan-19 18:10 34.201544 -118.359546 11 727ft 7kts
25-Jan-19 18:11 34.200604 -118.358367 168 721ft 6kts
25-Jan-19 18:12 34.198855 -118.358249 259 714ft 5kts
25-Jan-19 18:13 34.198936 -118.361513 271 720ft 9kts
25-Jan-19 18:14 34.199108 -118.365697 273 724ft 13kts
25-Jan-19 18:15 34.198721 -118.369081 184 726ft 0kts
25-Jan-19 18:16 34.198722 -118.369081 184 726ft 0kts
25-Jan-19 18:17 34.198722 -118.369081 184 726ft 0kts
25-Jan-19 18:18 34.197898 -118.368122 88 724ft 1kts
25-Jan-19 18:19 34.199153 -118.334212 124 1897ft 140kts
25-Jan-19 18:20 34.168604 -118.338607 226 4334ft 134kts
25-Jan-19 18:21 34.165396 -118.374550 321 6609ft 138kts
25-Jan-19 18:22 34.193761 -118.403076 321 9230ft 134kts
25-Jan-19 18:23 34.219311 -118.431706 321 11704ft 123kts
25-Jan-19 18:24 34.249009 -118.424147 32 13075ft 177kts
25-Jan-19 18:25 34.271569 -118.371797 61 13022ft 186kts
25-Jan-19 18:26 34.296025 -118.328487 22 13026ft 141kts
25-Jan-19 18:27 34.327482 -118.303750 21 13026ft 130kts
25-Jan-19 18:28 34.357281 -118.280351 21 13027ft 126kts
25-Jan-19 18:29 34.388156 -118.256004 20 14529ft 132kts
25-Jan-19 18:30 34.416648 -118.233281 18 16938ft 122kts
25-Jan-19 18:31 34.444603 -118.211276 17 18979ft 120kts
25-Jan-19 18:32 34.472939 -118.189127 18 20796ft 123kts
25-Jan-19 18:33 34.501905 -118.166323 19 22530ft 127kts
25-Jan-19 18:34 34.531334 -118.143068 19 24371ft 128kts
25-Jan-19 18:35 34.561784 -118.119023 20 25946ft 135kts
25-Jan-19 18:36 34.593881 -118.093671 22 27162ft 151kts
25-Jan-19 18:37 34.631925 -118.055652 50 27154ft 212kts
25-Jan-19 18:38 34.645418 -117.978933 63 27150ft 238kts
25-Jan-19 18:39 34.658587 -117.898486 64 27151ft 249kts
25-Jan-19 18:40 34.672532 -117.813054 65 27148ft 263kts
25-Jan-19 18:41 34.686737 -117.725474 64 27143ft 263kts
25-Jan-19 18:42 34.700816 -117.638390 64 27143ft 263kts
25-Jan-19 18:43 34.714869 -117.551056 64 27143ft 263kts
25-Jan-19 18:44 34.728859 -117.463722 64 27142ft 262kts
25-Jan-19 18:45 34.742764 -117.376497 64 27142ft 262kts
25-Jan-19 18:46 34.756611 -117.289111 65 27141ft 263kts
25-Jan-19 18:47 34.770425 -117.201495 65 27140ft 263kts
25-Jan-19 18:48 34.784112 -117.114593 65 27139ft 259kts
25-Jan-19 18:49 34.797518 -117.028820 64 27182ft 256kts
25-Jan-19 18:50 34.810744 -116.943804 64 27227ft 255kts
25-Jan-19 18:51 34.823926 -116.858485 65 27270ft 260kts
25-Jan-19 18:52 34.837436 -116.770832 65 27266ft 265kts
25-Jan-19 18:53 34.850983 -116.682441 65 27263ft 266kts
25-Jan-19 18:54 34.864544 -116.593542 65 27261ft 266kts
25-Jan-19 18:55 34.878056 -116.504531 65 27259ft 266kts
25-Jan-19 18:56 34.890984 -116.418621 64 27252ft 248kts
25-Jan-19 18:57 34.903125 -116.337904 64 27254ft 240kts
25-Jan-19 18:58 34.915087 -116.258171 64 27257ft 237kts
25-Jan-19 18:59 34.926756 -116.179696 63 27254ft 233kts
25-Jan-19 19:00 34.938410 -116.100887 63 27252ft 238kts
25-Jan-19 19:01 34.950257 -116.020726 64 27070ft 245kts
25-Jan-19 19:02 34.962848 -115.935745 66 25740ft 261kts
25-Jan-19 19:03 34.975518 -115.848541 66 24189ft 258kts
25-Jan-19 19:04 34.988013 -115.762426 67 22598ft 256kts
25-Jan-19 19:05 35.000095 -115.678712 68 20638ft 249kts
25-Jan-19 19:07 35.011829 -115.596734 68 18614ft 241kts
25-Jan-19 19:08 35.022920 -115.519660 69 16657ft 231kts
25-Jan-19 19:09 35.033383 -115.445910 70 15101ft 214kts
25-Jan-19 19:10 35.043342 -115.376027 71 13576ft 206kts
25-Jan-19 19:11 35.037588 -115.304382 91 12041ft 210kts
25-Jan-19 19:12 35.029833 -115.233671 91 10511ft 206kts
25-Jan-19 19:13 35.022813 -115.165467 91 9050ft 200kts
25-Jan-19 19:14 35.016240 -115.101291 91 9013ft 182kts
25-Jan-19 19:15 35.009712 -115.040835 91 9009ft 176kts
25-Jan-19 19:16 35.003242 -114.981198 91 9000ft 175kts
25-Jan-19 19:17 34.996801 -114.922049 91 8999ft 174kts
25-Jan-19 19:18 35.004156 -114.866684 71 7885ft 161kts
25-Jan-19 19:19 35.014382 -114.811578 70 7008ft 176kts
25-Jan-19 19:20 35.027582 -114.753395 66 5881ft 175kts
25-Jan-19 19:21 35.039633 -114.695788 79 4536ft 172kts
25-Jan-19 19:22 35.047578 -114.646316 62 3013ft 135kts
25-Jan-19 19:23 35.062484 -114.607317 54 2160ft 106kts
25-Jan-19 19:24 35.078411 -114.581194 43 1550ft 74kts
25-Jan-19 19:25 35.096937 -114.564670 20 1782ft 80kts
25-Jan-19 19:26 35.115396 -114.556531 358 1219ft 68kts
25-Jan-19 19:27 35.134924 -114.557902 358 920ft 70kts
25-Jan-19 19:28 35.150677 -114.559043 354 704ft 13kts
25-Jan-19 19:28 35.151351 -114.557947 70 704ft 6kts
25-Jan-19 19:29 35.153736 -114.557876 355 704ft 9kts
25-Jan-19 19:30 35.155965 -114.557408 88 704ft 8kts
25-Jan-19 19:31 35.156668 -114.556113 241 704ft 0kts
25-Jan-19 19:33 35.156668 -114.556113 241 704ft 0kts
25-Jan-19 19:33 35.156668 -114.556113 241 704ft 0kts
25-Jan-19 19:34 35.156668 -114.556113 241 704ft 0kts
25-Jan-19 19:35 35.156668 -114.556113 241 704ft 0kts

Navigation Log

Ident Type
Flight plan parsing failed, navigation log unavailable